Time;durP1;ratioP1;P1;durP2;ratioP2;P2;SDS_P1;SDS_P2;PMS_P1;PMS_P2;Temp;Humidity;BMP_temperature;BMP_pressure;BME280_temperature;BME280_humidity;BME280_pressure;Samples;Min_cycle;Max_cycle;Signal;HPM_P1;HPM_P2
2023/03/10 00:00:04;;;;;;;6.17;1.33;;;;;;;7.69;100.00;94334.06;5064979;28;20032;-83
2023/03/10 00:02:33;;;;;;;6.97;1.73;;;;;;;7.77;100.00;94339.13;5065211;28;20110;-84
2023/03/10 00:05:02;;;;;;;6.07;1.57;;;;;;;7.67;100.00;94333.41;5049637;28;20098;-83
2023/03/10 00:07:30;;;;;;;6.43;1.37;;;;;;;7.61;100.00;94336.78;5037329;28;20028;-83
2023/03/10 00:09:56;;;;;;;6.40;1.70;;;;;;;7.52;100.00;94337.94;5062772;28;20040;-83
2023/03/10 00:12:26;;;;;;;6.83;1.77;;;;;;;7.53;100.00;94336.91;5048720;28;20025;-84
2023/03/10 00:15:30;;;;;;;7.30;2.47;;;;;;;7.66;100.00;94336.25;5049987;28;20028;-84
2023/03/10 00:17:56;;;;;;;8.60;1.67;;;;;;;7.66;100.00;94331.81;5042415;28;20036;-83
2023/03/10 00:20:22;;;;;;;6.13;2.17;;;;;;;7.63;100.00;94320.91;5083032;28;20044;-84
2023/03/10 00:22:53;;;;;;;6.93;1.83;;;;;;;7.62;100.00;94319.31;5051459;28;20036;-83
2023/03/10 00:25:19;;;;;;;5.80;1.40;;;;;;;7.65;100.00;94311.88;5036002;28;20037;-83
2023/03/10 00:27:44;;;;;;;6.60;1.90;;;;;;;7.59;100.00;94315.25;5054589;28;20042;-84
2023/03/10 00:30:28;;;;;;;5.53;1.83;;;;;;;7.50;100.00;94311.13;5046688;28;20041;-84
2023/03/10 00:33:08;;;;;;;;;;;;;;;7.49;100.00;94322.59;5040725;28;20034;-83
2023/03/10 00:35:40;;;;;;;5.20;1.50;;;;;;;7.42;100.00;94300.81;5076607;28;19939;-83
2023/03/10 00:38:05;;;;;;;7.23;2.80;;;;;;;7.38;100.00;94308.22;5043764;28;20101;-83
2023/03/10 00:40:31;;;;;;;7.67;2.10;;;;;;;7.27;100.00;94296.44;5048141;28;20120;-83
2023/03/10 00:43:13;;;;;;;5.97;1.90;;;;;;;7.22;100.00;94298.00;5047889;28;20033;-84
2023/03/10 00:45:46;;;;;;;6.67;1.77;;;;;;;7.16;100.00;94290.91;5054575;28;20071;-83
2023/03/10 00:48:12;;;;;;;10.40;2.20;;;;;;;7.09;100.00;94293.44;5054363;28;20112;-84
2023/03/10 00:50:38;;;;;;;5.17;1.50;;;;;;;7.11;100.00;94288.03;5047674;28;20123;-84
2023/03/10 00:53:06;;;;;;;6.63;1.87;;;;;;;7.14;100.00;94290.25;5045951;28;20199;-84
2023/03/10 00:55:32;;;;;;;4.80;1.70;;;;;;;7.19;100.00;94288.72;5045852;28;20030;-83
2023/03/10 00:57:58;;;;;;;5.20;1.60;;;;;;;7.22;100.00;94275.28;5051783;28;20034;-84
2023/03/10 01:00:27;;;;;;;5.93;2.00;;;;;;;7.30;100.00;94262.06;5051285;28;20419;-84
2023/03/10 01:02:53;;;;;;;7.47;2.03;;;;;;;7.21;100.00;94263.22;5056425;28;20119;-83
2023/03/10 01:05:23;;;;;;;5.17;2.33;;;;;;;7.07;100.00;94249.19;5034768;28;20120;-83
2023/03/10 01:07:54;;;;;;;8.13;2.57;;;;;;;7.04;100.00;94256.59;5041597;28;20135;-83
2023/03/10 01:10:20;;;;;;;4.03;1.90;;;;;;;6.98;100.00;94250.31;5049461;28;20510;-83
2023/03/10 01:12:52;;;;;;;5.63;2.27;;;;;;;6.93;100.00;94236.19;5050716;28;20060;-84
2023/03/10 01:15:19;;;;;;;6.37;2.40;;;;;;;6.84;100.00;94241.53;5052134;28;20706;-82
2023/03/10 01:17:45;;;;;;;9.67;2.53;;;;;;;6.76;100.00;94218.13;5053469;28;20035;-84
2023/03/10 01:20:15;;;;;;;4.50;2.03;;;;;;;6.79;100.00;94222.97;5071340;28;20024;-83
2023/03/10 01:22:42;;;;;;;9.33;2.70;;;;;;;6.82;100.00;94222.63;5050554;28;20118;-83
2023/03/10 01:25:13;;;;;;;8.30;2.90;;;;;;;6.77;100.00;94214.53;5050523;28;20041;-81
2023/03/10 01:27:46;;;;;;;8.57;3.10;;;;;;;6.74;100.00;94207.06;5066717;28;20136;-80
2023/03/10 01:30:12;;;;;;;9.80;3.58;;;;;;;6.76;100.00;94197.22;5051047;28;20117;-81
2023/03/10 01:32:41;;;;;;;6.57;2.80;;;;;;;6.75;100.00;94185.16;5053091;28;20059;-81
2023/03/10 01:35:07;;;;;;;8.87;3.33;;;;;;;6.79;100.00;94175.16;5064944;28;20036;-81
2023/03/10 01:37:33;;;;;;;7.93;3.00;;;;;;;6.82;100.00;94165.13;5067034;28;20701;-81
2023/03/10 01:40:15;;;;;;;9.60;3.30;;;;;;;6.85;100.00;94172.59;5052865;28;20151;-81
2023/03/10 01:42:42;;;;;;;8.97;3.53;;;;;;;6.90;100.00;94171.22;5062425;28;20032;-81
2023/03/10 01:45:29;;;;;;;6.43;2.60;;;;;;;6.91;100.00;94157.16;5069395;28;20029;-81
2023/03/10 01:47:56;;;;;;;7.50;2.60;;;;;;;6.92;100.00;94158.81;5053372;28;20064;-81
2023/03/10 01:50:23;;;;;;;6.17;2.30;;;;;;;6.97;100.00;94141.53;5069922;28;20045;-81
2023/03/10 01:52:59;;;;;;;9.33;2.90;;;;;;;6.96;100.00;94152.19;5053362;28;20028;-82
2023/03/10 01:55:36;;;;;;;10.27;3.70;;;;;;;6.95;100.00;94148.78;5052005;28;20445;-81
2023/03/10 01:58:04;;;;;;;10.40;4.10;;;;;;;6.96;100.00;94141.75;5058341;28;20033;-82
2023/03/10 02:00:30;;;;;;;9.70;3.50;;;;;;;6.97;100.00;94136.31;5064731;28;20080;-82
2023/03/10 02:03:16;;;;;;;9.53;2.97;;;;;;;7.03;100.00;94129.53;5049657;28;20028;-81
2023/03/10 02:06:02;;;;;;;6.20;2.43;;;;;;;7.02;100.00;94128.72;5049507;28;20075;-82
2023/03/10 02:08:44;;;;;;;6.80;2.13;;;;;;;7.11;100.00;94121.56;5078283;28;20029;-81
2023/03/10 02:11:12;;;;;;;7.07;2.03;;;;;;;7.18;100.00;94116.41;5049956;28;20436;-82
2023/03/10 02:13:38;;;;;;;9.30;2.50;;;;;;;7.16;100.00;94119.19;5052622;28;20025;-82
2023/03/10 02:16:04;;;;;;;8.97;1.63;;;;;;;7.23;100.00;94116.63;5050963;28;20025;-82
2023/03/10 02:18:35;;;;;;;4.30;1.80;;;;;;;7.25;100.00;94112.03;5049946;28;20044;-82
2023/03/10 02:21:27;;;;;;;7.43;1.53;;;;;;;7.30;100.00;94115.66;5049695;28;20391;-82
2023/03/10 02:24:03;;;;;;;5.43;1.60;;;;;;;7.30;100.00;94114.84;5078698;28;20410;-81
2023/03/10 02:26:34;;;;;;;7.43;1.83;;;;;;;7.45;100.00;94109.53;5066626;28;20486;-82
2023/03/10 02:29:14;;;;;;;5.97;1.60;;;;;;;7.49;100.00;94111.56;5048863;28;20059;-82
2023/03/10 02:31:40;;;;;;;5.50;1.50;;;;;;;7.61;100.00;94109.19;5082485;28;20791;-82
2023/03/10 02:34:07;;;;;;;6.50;1.23;;;;;;;7.79;100.00;94103.47;5066930;28;20465;-81
2023/03/10 02:36:58;;;;;;;4.90;1.23;;;;;;;7.94;100.00;94116.41;5066139;28;20506;-82
2023/03/10 02:39:31;;;;;;;5.80;1.30;;;;;;;8.05;100.00;94097.56;5047611;28;20021;-81
2023/03/10 02:42:00;;;;;;;5.33;1.50;;;;;;;8.04;100.00;94106.38;5055495;28;20110;-80
2023/03/10 02:44:32;;;;;;;6.40;1.93;;;;;;;8.20;100.00;94106.03;5033821;28;20064;-81
2023/03/10 02:46:58;;;;;;;3.37;1.10;;;;;;;8.37;100.00;94108.31;5077480;28;20410;-81
2023/03/10 02:49:24;;;;;;;7.17;1.27;;;;;;;8.38;100.00;94102.09;5060672;28;20028;-82
2023/03/10 02:51:54;;;;;;;4.30;1.00;;;;;;;8.53;100.00;94101.94;5065353;28;20146;-81
2023/03/10 02:54:20;;;;;;;4.93;0.90;;;;;;;8.55;100.00;94111.22;5051471;28;20501;-81
2023/03/10 02:56:47;;;;;;;5.80;0.97;;;;;;;8.49;100.00;94123.28;5082796;28;20760;-81
2023/03/10 02:59:22;;;;;;;3.47;1.07;;;;;;;8.35;100.00;94113.75;5058279;28;20128;-82
2023/03/10 03:01:50;;;;;;;4.20;1.00;;;;;;;8.16;100.00;94112.69;5072202;28;20020;-82
2023/03/10 03:04:18;;;;;;;2.67;0.97;;;;;;;8.16;100.00;94115.31;5050731;28;20035;-82
2023/03/10 03:06:44;;;;;;;4.00;1.00;;;;;;;7.99;100.00;94119.28;5051175;28;20119;-82
2023/03/10 03:09:12;;;;;;;5.13;1.10;;;;;;;7.96;100.00;94130.94;5046477;28;20551;-81
2023/03/10 03:11:39;;;;;;;5.03;1.00;;;;;;;7.90;100.00;94126.47;5067515;28;20118;-81
2023/03/10 03:14:07;;;;;;;6.00;1.70;;;;;;;7.91;100.00;94132.50;5050524;28;20033;-81
2023/03/10 03:16:33;;;;;;;5.37;0.80;;;;;;;7.93;100.00;94123.47;5050618;28;20044;-81
2023/03/10 03:19:04;;;;;;;3.20;0.87;;;;;;;7.93;100.00;94135.75;5067702;28;20032;-82
2023/03/10 03:21:33;;;;;;;2.00;0.90;;;;;;;7.85;100.00;94133.31;5047141;28;20037;-81
2023/03/10 03:23:58;;;;;;;1.77;0.60;;;;;;;7.92;100.00;94129.72;5047729;28;20517;-82
2023/03/10 03:26:29;;;;;;;2.23;0.67;;;;;;;7.91;100.00;94114.19;5050381;28;20065;-81
2023/03/10 03:32:14;;;;;;;2.28;0.47;;;;;;;7.82;100.00;94133.69;5082632;28;20033;-81
2023/03/10 03:34:46;;;;;;;1.43;0.40;;;;;;;7.80;100.00;94121.59;5075886;28;20021;-81
2023/03/10 03:37:13;;;;;;;2.47;0.50;;;;;;;7.88;100.00;94111.94;5050998;28;20036;-81
2023/03/10 03:39:53;;;;;;;3.50;0.33;;;;;;;7.90;100.00;94115.19;5050320;28;20055;-81
2023/03/10 03:42:19;;;;;;;2.17;0.43;;;;;;;7.86;100.00;94114.78;5060943;28;20379;-81
2023/03/10 03:44:50;;;;;;;1.53;0.40;;;;;;;7.94;100.00;94117.22;5041768;28;20040;-82
2023/03/10 03:47:16;;;;;;;1.77;0.20;;;;;;;7.90;100.00;94123.03;5067817;28;20028;-81
2023/03/10 03:49:50;;;;;;;1.97;0.30;;;;;;;7.88;100.00;94120.63;5068428;28;20036;-82
2023/03/10 03:52:16;;;;;;;1.47;0.60;;;;;;;7.86;100.00;94120.00;5049941;28;20039;-81
2023/03/10 03:54:42;;;;;;;1.47;0.30;;;;;;;7.90;100.00;94121.22;5033602;28;20036;-82
2023/03/10 03:57:07;;;;;;;2.90;0.40;;;;;;;7.89;100.00;94124.06;5055888;28;20028;-81
2023/03/10 03:59:36;;;;;;;1.50;0.40;;;;;;;7.91;100.00;94122.84;5050371;28;20475;-81
2023/03/10 04:02:02;;;;;;;1.13;0.30;;;;;;;7.87;100.00;94126.03;5054347;28;20025;-82
2023/03/10 04:04:28;;;;;;;0.73;0.47;;;;;;;7.92;100.00;94123.66;5031786;28;20024;-81
2023/03/10 04:06:55;;;;;;;1.47;0.40;;;;;;;7.90;100.00;94115.19;5065190;28;20028;-81
2023/03/10 04:09:23;;;;;;;1.10;0.40;;;;;;;7.89;100.00;94113.59;5032585;28;20068;-81
2023/03/10 04:11:49;;;;;;;1.73;0.63;;;;;;;7.92;100.00;94110.59;5048677;28;20059;-82
2023/03/10 04:14:14;;;;;;;2.20;0.40;;;;;;;7.93;100.00;94110.38;5053173;28;20033;-81
2023/03/10 04:16:41;;;;;;;1.07;0.50;;;;;;;7.96;100.00;94104.75;5047396;28;20067;-81
2023/03/10 04:19:17;;;;;;;0.83;0.20;;;;;;;8.00;100.00;94105.16;5047635;28;20033;-82
2023/03/10 04:21:49;;;;;;;2.70;0.50;;;;;;;7.99;100.00;94096.50;5046828;28;20037;-81
2023/03/10 04:24:16;;;;;;;1.00;0.20;;;;;;;8.10;100.00;94095.13;5065650;28;20021;-81
2023/03/10 04:26:42;;;;;;;1.03;0.30;;;;;;;8.12;100.00;94084.50;5071275;28;20029;-81
2023/03/10 04:29:09;;;;;;;1.07;0.30;;;;;;;8.10;100.00;94094.34;5055240;28;20033;-81
2023/03/10 04:31:37;;;;;;;1.13;0.23;;;;;;;8.13;100.00;94084.28;5060198;28;20451;-82
2023/03/10 04:34:08;;;;;;;0.67;0.20;;;;;;;8.15;100.00;94092.75;5070046;28;20433;-82
2023/03/10 04:36:35;;;;;;;3.33;0.40;;;;;;;8.21;100.00;94080.66;5086602;28;20029;-81
2023/03/10 04:39:03;;;;;;;0.50;0.20;;;;;;;8.21;100.00;94084.09;5053231;28;20111;-81
2023/03/10 04:41:40;;;;;;;0.50;0.27;;;;;;;8.21;100.00;94089.31;5056415;28;20558;-82
2023/03/10 04:44:20;;;;;;;0.57;0.20;;;;;;;8.25;100.00;94084.53;5078537;28;20123;-82
2023/03/10 04:46:53;;;;;;;1.83;0.30;;;;;;;8.20;100.00;94079.88;5055553;28;20029;-82
2023/03/10 04:49:19;;;;;;;3.90;1.17;;;;;;;8.11;100.00;94080.22;5046149;28;20037;-82
2023/03/10 04:51:47;;;;;;;2.80;0.50;;;;;;;8.04;100.00;94078.41;5049435;28;20033;-82
2023/03/10 04:54:13;;;;;;;2.33;0.30;;;;;;;7.99;100.00;94087.84;5066291;28;20040;-82
2023/03/10 04:56:40;;;;;;;2.10;0.50;;;;;;;7.95;100.00;94086.66;5057035;28;20040;-82
2023/03/10 04:59:06;;;;;;;0.93;0.40;;;;;;;7.93;100.00;94083.41;5053603;28;20033;-82
2023/03/10 05:01:33;;;;;;;1.47;0.40;;;;;;;7.98;100.00;94081.00;5056109;28;20039;-82
2023/03/10 05:04:04;;;;;;;0.60;0.40;;;;;;;7.93;100.00;94078.16;5070241;28;20398;-82
2023/03/10 05:06:34;;;;;;;1.37;0.70;;;;;;;7.86;100.00;94066.88;5037537;28;20063;-82
2023/03/10 05:09:59;;;;;;;1.87;0.50;;;;;;;7.93;100.00;94075.56;5044441;28;20047;-82
2023/03/10 05:12:27;;;;;;;3.53;0.40;;;;;;;7.86;100.00;94072.09;5045277;28;20025;-82
2023/03/10 05:14:52;;;;;;;3.70;0.50;;;;;;;7.81;100.00;94075.28;5050783;28;20029;-82
2023/03/10 05:17:44;;;;;;;2.17;0.70;;;;;;;7.80;100.00;94071.88;5038621;28;20025;-82
2023/03/10 05:20:12;;;;;;;3.47;0.80;;;;;;;7.82;100.00;94066.47;5054125;28;20078;-82
2023/03/10 05:22:41;;;;;;;1.57;0.40;;;;;;;7.74;100.00;94064.78;5070395;28;20036;-81
2023/03/10 05:25:10;;;;;;;1.63;0.80;;;;;;;7.69;100.00;94061.16;5056304;28;20029;-83
2023/03/10 05:27:37;;;;;;;1.17;0.50;;;;;;;7.68;100.00;94070.81;5051857;28;20032;-83
2023/03/10 05:30:26;;;;;;;0.50;0.30;;;;;;;7.70;100.00;94058.34;5053485;28;20383;-83
2023/03/10 05:32:54;;;;;;;3.33;0.67;;;;;;;7.74;100.00;94061.38;5057002;28;20033;-82
2023/03/10 05:35:21;;;;;;;1.47;0.40;;;;;;;7.75;100.00;94058.59;5049766;28;20037;-83
2023/03/10 05:37:50;;;;;;;0.87;0.50;;;;;;;7.81;100.00;94051.75;5053751;28;20033;-83
2023/03/10 05:40:21;;;;;;;1.10;0.67;;;;;;;7.89;100.00;94040.31;5074376;28;20033;-83
2023/03/10 05:42:48;;;;;;;2.27;0.73;;;;;;;7.95;100.00;94044.75;5060648;28;20111;-83
2023/03/10 05:45:15;;;;;;;1.43;0.70;;;;;;;8.11;100.00;94030.50;5064014;28;21472;-82
2023/03/10 05:47:42;;;;;;;3.97;0.80;;;;;;;8.09;100.00;93996.69;5064469;28;20075;-84
2023/03/10 05:50:15;;;;;;;1.77;0.50;;;;;;;8.08;100.00;94008.16;5052523;28;20032;-83
2023/03/10 05:52:42;;;;;;;3.28;0.50;;;;;;;8.00;100.00;94009.13;5033960;28;20382;-84
2023/03/10 05:55:14;;;;;;;1.70;0.40;;;;;;;7.88;100.00;94012.50;5048713;28;20055;-83
2023/03/10 05:57:42;;;;;;;1.50;0.43;;;;;;;7.79;100.00;94014.50;5066550;28;20029;-84
2023/03/10 06:00:09;;;;;;;2.40;0.50;;;;;;;7.76;100.00;94018.31;5056758;28;20067;-84
2023/03/10 06:02:42;;;;;;;2.13;0.50;;;;;;;7.65;100.00;94018.09;5048573;28;20113;-83
2023/03/10 06:05:12;;;;;;;1.80;0.70;;;;;;;7.59;100.00;94021.47;5031229;28;20530;-84
2023/03/10 06:07:38;;;;;;;2.43;0.50;;;;;;;7.58;100.00;94015.44;5057084;28;20715;-83
2023/03/10 06:10:16;;;;;;;3.07;0.60;;;;;;;7.61;100.00;94019.47;5048873;28;20418;-83
2023/03/10 06:12:54;;;;;;;2.80;0.73;;;;;;;7.55;100.00;94013.22;5046417;28;20029;-84
2023/03/10 06:15:20;;;;;;;4.23;0.63;;;;;;;7.59;100.00;94001.38;5085071;28;20063;-83
2023/03/10 06:17:46;;;;;;;2.70;0.83;;;;;;;7.61;100.00;94006.38;5031989;28;20410;-83
2023/03/10 06:20:12;;;;;;;4.00;1.57;;;;;;;7.61;100.00;94015.03;5048509;28;20032;-84
2023/03/10 06:22:40;;;;;;;2.67;0.60;;;;;;;7.71;100.00;94007.66;5047623;28;20068;-82
2023/03/10 06:25:09;;;;;;;0.97;0.50;;;;;;;7.77;100.00;94008.66;5064872;28;20032;-82
2023/03/10 06:27:50;;;;;;;2.53;0.50;;;;;;;7.80;100.00;93997.81;5048128;28;20532;-82
2023/03/10 06:30:32;;;;;;;1.87;0.40;;;;;;;7.99;100.00;93988.41;5066376;28;20541;-83
2023/03/10 06:32:59;;;;;;;2.10;0.60;;;;;;;7.95;100.00;93988.00;5046593;28;20696;-83
2023/03/10 06:35:26;;;;;;;3.17;1.20;;;;;;;7.90;100.00;93986.97;5050048;28;20052;-83
2023/03/10 06:37:51;;;;;;;2.47;0.77;;;;;;;7.84;100.00;93988.53;5043776;28;1222174;-83
2023/03/10 06:40:19;;;;;;;1.33;0.50;;;;;;;7.87;100.00;93992.59;5050927;28;20068;-82
2023/03/10 06:42:46;;;;;;;2.83;0.60;;;;;;;7.92;100.00;93995.44;5084657;28;20044;-83
2023/03/10 06:45:15;;;;;;;2.67;0.43;;;;;;;7.86;100.00;93990.97;5052854;28;20056;-82
2023/03/10 06:47:41;;;;;;;1.30;0.40;;;;;;;7.95;100.00;93984.56;5048655;28;20099;-83
2023/03/10 06:50:08;;;;;;;0.97;0.40;;;;;;;7.94;100.00;93985.56;5051004;28;20041;-83
2023/03/10 06:52:34;;;;;;;1.57;0.50;;;;;;;7.95;100.00;93984.56;5046808;28;20037;-83
2023/03/10 06:55:01;;;;;;;2.30;0.40;;;;;;;8.02;100.00;93994.03;5048648;28;20402;-83
2023/03/10 06:57:27;;;;;;;2.30;0.40;;;;;;;7.95;100.00;93979.34;5054079;28;20413;-83
2023/03/10 06:59:53;;;;;;;5.43;1.77;;;;;;;7.93;100.00;93969.06;5047654;28;20032;-82
2023/03/10 07:02:19;;;;;;;3.73;1.13;;;;;;;7.95;100.00;93967.06;5053911;28;20038;-82
2023/03/10 07:04:50;;;;;;;9.87;3.03;;;;;;;8.03;100.00;93964.25;5047414;28;20025;-82
2023/03/10 07:07:17;;;;;;;10.23;4.23;;;;;;;8.07;100.00;93972.50;5090098;28;20482;-83
2023/03/10 07:09:44;;;;;;;4.73;2.07;;;;;;;8.06;100.00;93951.78;5056015;28;20036;-82
2023/03/10 07:12:10;;;;;;;3.33;1.00;;;;;;;8.19;100.00;93963.06;5052242;28;20041;-82
2023/03/10 07:14:37;;;;;;;2.30;1.20;;;;;;;8.13;100.00;93970.91;5049818;28;20090;-82
2023/03/10 07:17:03;;;;;;;1.30;0.77;;;;;;;8.08;100.00;93963.66;5067589;28;20043;-83
2023/03/10 07:19:28;;;;;;;1.73;0.77;;;;;;;8.10;100.00;93966.88;5083885;28;20144;-82
2023/03/10 07:22:05;;;;;;;3.23;0.70;;;;;;;8.06;100.00;93968.28;5059619;28;20033;-83
2023/03/10 07:24:31;;;;;;;1.70;0.60;;;;;;;8.15;100.00;93964.47;5064480;28;20067;-82
2023/03/10 07:27:00;;;;;;;2.93;0.80;;;;;;;8.35;100.00;93959.25;5052519;28;20072;-82
2023/03/10 07:29:38;;;;;;;1.83;0.70;;;;;;;9.03;100.00;93945.09;5064917;28;20025;-83
2023/03/10 07:32:04;;;;;;;1.67;0.70;;;;;;;8.93;100.00;93959.41;5047343;28;20033;-82
2023/03/10 07:34:36;;;;;;;0.70;0.30;;;;;;;8.69;100.00;93960.88;5075294;28;20415;-83
2023/03/10 07:37:01;;;;;;;0.97;0.47;;;;;;;8.80;100.00;93969.13;5047652;28;20025;-83
2023/03/10 07:39:27;;;;;;;1.03;0.33;;;;;;;8.92;100.00;93967.47;5048263;28;20032;-82
2023/03/10 07:42:01;;;;;;;0.63;0.13;;;;;;;9.13;100.00;93972.50;5058925;28;20487;-82
2023/03/10 07:44:30;;;;;;;0.77;0.30;;;;;;;9.15;100.00;93962.63;5050669;28;20030;-82
2023/03/10 07:46:55;;;;;;;0.57;0.30;;;;;;;9.28;100.00;93955.69;5030304;28;20033;-82
2023/03/10 07:49:27;;;;;;;1.63;0.47;;;;;;;9.30;100.00;93959.72;5064605;28;20028;-83
2023/03/10 07:51:59;;;;;;;0.30;0.20;;;;;;;9.43;100.00;93953.63;5047522;28;20029;-84
2023/03/10 07:54:24;;;;;;;1.37;0.43;;;;;;;10.20;100.00;93948.38;5046582;28;20033;-82
2023/03/10 07:56:54;;;;;;;1.03;0.37;;;;;;;10.74;100.00;93937.25;5048073;28;20032;-83
2023/03/10 07:59:19;;;;;;;0.43;0.23;;;;;;;10.31;100.00;93934.59;5082187;28;20036;-83
2023/03/10 08:01:45;;;;;;;1.47;0.37;;;;;;;10.59;100.00;93950.72;5048135;28;20041;-82
2023/03/10 08:04:11;;;;;;;1.27;0.30;;;;;;;10.71;100.00;93939.50;5066365;28;20090;-83
2023/03/10 08:06:37;;;;;;;0.37;0.20;;;;;;;10.25;100.00;93941.44;5031604;28;20104;-83
2023/03/10 08:09:03;;;;;;;1.30;0.47;;;;;;;10.00;100.00;93951.94;5049597;28;20029;-81
2023/03/10 08:11:33;;;;;;;2.27;0.50;;;;;;;9.75;100.00;93957.09;5039568;28;20031;-82
2023/03/10 08:13:58;;;;;;;1.43;0.50;;;;;;;9.75;100.00;93961.56;5033217;28;20483;-82
2023/03/10 08:16:30;;;;;;;2.93;0.93;;;;;;;9.57;100.00;93963.06;5053516;28;20032;-82
2023/03/10 08:19:08;;;;;;;0.93;0.30;;;;;;;9.53;100.00;93972.38;5084650;28;20037;-83
2023/03/10 08:21:34;;;;;;;1.13;0.50;;;;;;;9.65;100.00;93968.06;5064438;28;20109;-83
2023/03/10 08:24:02;;;;;;;2.23;0.40;;;;;;;9.60;100.00;93965.25;5045733;28;20034;-82
2023/03/10 08:26:27;;;;;;;2.30;0.60;;;;;;;9.71;100.00;93973.50;5049231;28;20029;-83
2023/03/10 08:28:59;;;;;;;1.80;0.43;;;;;;;9.58;100.00;93959.41;5065415;28;20833;-83
2023/03/10 08:31:25;;;;;;;3.03;0.50;;;;;;;9.67;100.00;93973.09;5039174;28;20028;-83
2023/03/10 08:33:55;;;;;;;2.03;0.40;;;;;;;9.62;100.00;93965.03;5078967;28;20526;-81
2023/03/10 08:36:23;;;;;;;2.70;0.60;;;;;;;9.65;100.00;93962.00;5063458;28;20029;-81
2023/03/10 08:39:04;;;;;;;7.50;4.13;;;;;;;9.70;100.00;93961.41;5054031;28;20036;-82
2023/03/10 08:41:36;;;;;;;2.67;0.60;;;;;;;9.86;100.00;93945.97;5076583;28;20406;-82
2023/03/10 08:44:04;;;;;;;1.33;0.60;;;;;;;10.24;100.00;93950.34;5045851;28;20057;-82
2023/03/10 08:46:30;;;;;;;2.30;0.60;;;;;;;10.34;100.00;93945.47;5045548;28;20064;-82
2023/03/10 08:48:59;;;;;;;1.93;0.50;;;;;;;10.42;100.00;93941.75;5048183;28;20040;-82
2023/03/10 08:51:27;;;;;;;2.47;0.50;;;;;;;10.42;100.00;93941.75;5063850;28;20059;-82
2023/03/10 08:53:53;;;;;;;2.53;0.90;;;;;;;10.40;100.00;93943.81;5050353;28;20127;-83
2023/03/10 08:56:23;;;;;;;1.77;0.47;;;;;;;10.42;100.00;93946.22;5046475;28;20527;-82
2023/03/10 08:58:59;;;;;;;3.80;0.80;;;;;;;10.23;100.00;93943.50;5047585;28;20036;-82
2023/03/10 09:01:34;;;;;;;4.67;0.57;;;;;;;10.22;100.00;93936.63;5042949;28;20482;-82
2023/03/10 09:04:16;;;;;;;1.63;0.50;;;;;;;10.15;100.00;93936.66;5056601;28;20483;-82
2023/03/10 09:06:51;;;;;;;6.30;0.57;;;;;;;9.98;100.00;93924.28;5077419;28;20551;-83
2023/03/10 09:09:17;;;;;;;4.57;0.60;;;;;;;9.86;100.00;93929.41;5070312;28;20033;-83
2023/03/10 09:11:43;;;;;;;3.50;0.80;;;;;;;9.76;100.00;93926.41;5082676;28;20094;-82
2023/03/10 09:14:10;;;;;;;2.73;0.60;;;;;;;9.76;100.00;93931.66;5049879;28;20044;-82
2023/03/10 09:16:38;;;;;;;1.23;0.40;;;;;;;9.69;100.00;93957.94;5044591;28;20077;-82
2023/03/10 09:19:04;;;;;;;1.30;0.40;;;;;;;9.33;100.00;93992.63;5072232;28;20441;-82
2023/03/10 09:21:31;;;;;;;3.33;1.13;;;;;;;8.32;100.00;94004.16;5089415;28;20033;-82
2023/03/10 09:23:57;;;;;;;2.30;0.60;;;;;;;8.08;100.00;94000.31;5051406;28;20037;-82
2023/03/10 09:26:23;;;;;;;3.50;1.27;;;;;;;7.71;100.00;94018.13;5050801;28;20592;-81
2023/03/10 09:28:53;;;;;;;1.60;0.40;;;;;;;7.64;100.00;94027.72;5052674;28;20049;-82
2023/03/10 09:31:27;;;;;;;3.67;0.50;;;;;;;7.63;100.00;94041.00;5053948;28;20082;-80
2023/03/10 09:33:54;;;;;;;5.27;1.40;;;;;;;7.59;100.00;94045.81;5047317;28;20037;-80
2023/03/10 09:36:19;;;;;;;4.17;1.63;;;;;;;7.57;100.00;94056.47;5069629;28;20035;-80
2023/03/10 09:38:46;;;;;;;7.90;3.23;;;;;;;7.51;100.00;94054.66;5055306;28;20032;-80
2023/03/10 09:41:49;;;;;;;1.60;0.43;;;;;;;7.72;100.00;94047.69;5051737;28;20037;-80
2023/03/10 09:44:27;;;;;;;2.27;0.90;;;;;;;7.67;100.00;94066.56;5051655;28;20108;-80
2023/03/10 09:47:20;;;;;;;2.53;0.40;;;;;;;7.73;100.00;94057.97;5052397;28;20095;-80
2023/03/10 09:50:09;;;;;;;1.90;0.40;;;;;;;7.68;100.00;94070.81;5032872;28;20025;-80
2023/03/10 09:52:45;;;;;;;1.73;0.40;;;;;;;7.67;100.00;94063.16;5048524;28;20040;-80
2023/03/10 09:55:43;;;;;;;1.30;0.30;;;;;;;8.13;100.00;94057.28;5049908;28;20028;-80
2023/03/10 09:58:55;;;;;;;0.87;0.30;;;;;;;8.51;100.00;94062.81;5033865;28;20041;-80
2023/03/10 10:01:29;;;;;;;0.80;0.50;;;;;;;9.17;100.00;94075.16;5045983;28;20098;-80
2023/03/10 10:04:06;;;;;;;0.83;0.40;;;;;;;9.28;100.00;94069.28;5051864;28;20047;-81
2023/03/10 10:06:36;;;;;;;1.30;0.80;;;;;;;9.45;100.00;94057.34;5032484;28;20068;-81
2023/03/10 10:09:11;;;;;;;2.97;0.70;;;;;;;9.65;100.00;94045.97;5065764;28;20094;-81
2023/03/10 10:11:58;;;;;;;1.57;0.40;;;;;;;9.75;100.00;94035.84;5034227;28;20044;-81
2023/03/10 10:14:27;;;;;;;1.27;0.50;;;;;;;9.94;100.00;94034.16;5048911;28;20032;-81
2023/03/10 10:17:01;;;;;;;1.50;0.50;;;;;;;10.11;100.00;94030.03;5082956;28;20040;-81
2023/03/10 10:19:28;;;;;;;1.00;0.40;;;;;;;10.24;100.00;94020.47;5082777;28;20029;-81
2023/03/10 10:22:22;;;;;;;1.33;0.60;;;;;;;10.34;100.00;94016.41;5045324;28;20029;-81
2023/03/10 10:25:12;;;;;;;0.88;0.32;;;;;;;10.87;100.00;94014.41;5081490;28;20087;-81
2023/03/10 10:27:39;;;;;;;1.37;0.30;;;;;;;11.13;100.00;94002.81;5045709;28;20123;-81
2023/03/10 10:30:35;;;;;;;1.90;0.53;;;;;;;11.02;100.00;93994.63;5048178;28;20048;-81
2023/03/10 10:33:08;;;;;;;2.37;0.60;;;;;;;10.92;100.00;93989.06;5056510;28;20107;-81
2023/03/10 10:35:35;;;;;;;;;;;;;;;11.20;100.00;93991.25;5066474;28;20078;-81
2023/03/10 10:38:10;;;;;;;5.30;1.20;;;;;;;11.06;100.00;93990.53;5079720;28;19920;-81
2023/03/10 10:40:50;;;;;;;2.00;0.60;;;;;;;10.69;100.00;93991.47;5054013;28;20127;-81
2023/03/10 10:43:20;;;;;;;1.70;0.50;;;;;;;10.68;100.00;93992.50;5048426;28;20605;-82
2023/03/10 10:46:04;;;;;;;1.83;0.33;;;;;;;10.87;100.00;93981.03;5082738;28;20033;-81
2023/03/10 10:48:45;;;;;;;2.90;0.50;;;;;;;11.15;100.00;93980.56;5050874;28;20083;-81
2023/03/10 10:51:20;;;;;;;3.07;0.70;;;;;;;10.78;100.00;93979.69;5049930;28;20457;-81
2023/03/10 10:54:27;;;;;;;3.10;0.53;;;;;;;10.61;100.00;93997.81;5051251;28;20560;-81
2023/03/10 10:56:58;;;;;;;2.67;0.40;;;;;;;10.08;100.00;93998.94;5034776;28;20144;-81
2023/03/10 10:59:33;;;;;;;5.57;2.27;;;;;;;10.20;100.00;94006.97;5047735;28;20033;-80
2023/03/10 11:02:21;;;;;;;1.57;0.50;;;;;;;10.13;100.00;94007.00;5055124;28;20110;-81
2023/03/10 11:04:47;;;;;;;2.10;0.63;;;;;;;10.07;100.00;93984.22;5065255;28;20041;-82
2023/03/10 11:07:24;;;;;;;5.57;1.10;;;;;;;9.94;100.00;93992.16;5049134;28;20679;-81
2023/03/10 11:09:50;;;;;;;2.73;0.70;;;;;;;9.95;100.00;93983.25;5046090;28;20043;-81
2023/03/10 11:12:25;;;;;;;1.13;0.27;;;;;;;9.91;100.00;93989.94;5048500;28;20382;-81
2023/03/10 11:15:48;;;;;;;1.63;0.40;;;;;;;9.91;100.00;93982.06;5048730;28;20450;-81
2023/03/10 11:18:36;;;;;;;2.67;0.67;;;;;;;9.76;100.00;93990.22;4971063;28;20034;-81
2023/03/10 11:21:15;;;;;;;4.23;1.13;;;;;;;9.64;100.00;93982.19;5030800;28;20029;-82
2023/03/10 11:23:44;;;;;;;1.70;0.60;;;;;;;9.47;100.00;93998.63;5052865;28;20036;-82
2023/03/10 11:26:41;;;;;;;2.87;1.53;;;;;;;9.44;100.00;93992.75;5080499;28;20045;-80
2023/03/10 11:29:37;;;;;;;3.70;0.80;;;;;;;9.54;100.00;93997.56;5064920;28;20033;-81
2023/03/10 11:32:26;;;;;;;9.80;3.50;;;;;;;9.38;100.00;94008.53;5071408;28;20494;-83
2023/03/10 11:34:57;;;;;;;8.77;2.97;;;;;;;9.09;100.00;94004.56;5055095;28;20036;-85
2023/03/10 11:38:16;;;;;;;11.10;4.30;;;;;;;9.09;100.00;94015.06;5049764;28;20075;-83
2023/03/10 11:41:44;;;;;;;3.17;1.13;;;;;;;9.15;100.00;94015.06;5017784;28;20041;-84
2023/03/10 11:44:38;;;;;;;26.20;12.43;;;;;;;9.35;100.00;94014.97;5032176;28;20045;-84
2023/03/10 11:47:46;;;;;;;5.95;2.30;;;;;;;9.35;100.00;94008.94;5047680;28;20460;-84
2023/03/10 11:50:51;;;;;;;4.50;1.20;;;;;;;9.40;100.00;94007.31;5043783;28;20131;-83
2023/03/10 11:53:49;;;;;;;6.37;1.40;;;;;;;9.28;100.00;94008.94;5046493;28;20183;-82
2023/03/10 11:56:18;;;;;;;6.33;1.90;;;;;;;9.44;100.00;93998.00;5081244;28;20399;-83
2023/03/10 11:59:05;;;;;;;5.80;1.97;;;;;;;9.49;100.00;94000.03;5049314;28;20040;-82